Time;durP1;ratioP1;P1;durP2;ratioP2;P2;SDS_P1;SDS_P2;PMS_P1;PMS_P2;Temp;Humidity;BMP_temperature;BMP_pressure;BME280_temperature;BME280_humidity;BME280_pressure;Samples;Min_cycle;Max_cycle;Signal;HPM_P1;HPM_P2
2023/09/08 00:00:27;;;;;;;12.85;6.63;;;;;;;20.86;61.89;100741.31;4146692;28;20049;-69
2023/09/08 00:02:30;;;;;;;10.50;6.32;;;;;;;20.82;62.30;100742.28;4146884;28;20049;-69
2023/09/08 00:04:33;;;;;;;10.27;5.78;;;;;;;20.75;62.46;100733.66;4144489;28;20034;-69
2023/09/08 00:06:36;;;;;;;10.30;5.83;;;;;;;20.70;62.83;100733.72;4140600;28;20058;-69
2023/09/08 00:08:39;;;;;;;12.02;6.18;;;;;;;20.66;62.78;100728.53;4144479;28;20128;-69
2023/09/08 00:10:42;;;;;;;11.23;6.20;;;;;;;20.60;63.04;100732.19;4148886;28;20065;-69
2023/09/08 00:12:45;;;;;;;8.63;6.47;;;;;;;20.54;63.04;100733.19;4145847;28;20108;-69
2023/09/08 00:14:47;;;;;;;9.82;6.35;;;;;;;20.52;63.18;100735.00;4142643;28;20489;-70
2023/09/08 00:16:54;;;;;;;12.80;7.43;;;;;;;20.48;62.35;100729.81;4143859;28;20718;-69
2023/09/08 00:18:58;;;;;;;9.23;6.18;;;;;;;20.44;62.65;100733.44;4146701;28;20141;-69
2023/09/08 00:21:01;;;;;;;11.27;6.53;;;;;;;20.43;62.86;100729.94;4164050;22;20022;-68
2023/09/08 00:23:03;;;;;;;11.02;6.68;;;;;;;20.43;62.79;100729.94;4152503;28;20137;-69
2023/09/08 00:25:07;;;;;;;11.95;6.35;;;;;;;20.45;62.59;100725.47;4159229;28;20044;-69
2023/09/08 00:27:10;;;;;;;9.30;6.53;;;;;;;20.46;62.54;100721.06;4163460;28;20045;-69
2023/09/08 00:29:13;;;;;;;11.15;6.45;;;;;;;20.45;62.30;100730.75;4162019;28;20087;-69
2023/09/08 00:31:16;;;;;;;9.88;6.47;;;;;;;20.43;62.57;100732.56;4154697;28;20045;-69
2023/09/08 00:33:22;;;;;;;9.88;6.63;;;;;;;20.40;62.50;100725.59;4162114;28;20133;-69
2023/09/08 00:35:24;;;;;;;10.88;6.60;;;;;;;20.37;62.30;100733.56;4159222;28;20464;-69
2023/09/08 00:37:27;;;;;;;11.48;6.28;;;;;;;20.36;62.47;100736.25;4157212;28;20029;-69
2023/09/08 00:39:30;;;;;;;9.38;6.55;;;;;;;20.32;62.61;100729.28;4140207;28;20053;-69
2023/09/08 00:41:33;;;;;;;10.98;6.50;;;;;;;20.32;62.66;100730.16;4162559;28;20548;-69
2023/09/08 00:43:36;;;;;;;12.98;7.07;;;;;;;20.28;62.90;100733.78;4156601;28;20323;-69
2023/09/08 00:45:42;;;;;;;12.27;6.65;;;;;;;20.29;62.67;100734.66;4144729;28;20507;-69
2023/09/08 00:47:45;;;;;;;9.35;6.60;;;;;;;20.27;62.98;100737.31;4148612;28;20548;-69
2023/09/08 00:49:51;;;;;;;11.85;6.90;;;;;;;20.29;63.09;100732.00;4156374;28;20045;-69
2023/09/08 00:51:54;;;;;;;11.73;6.95;;;;;;;20.28;63.33;100732.91;4157313;28;20040;-69
2023/09/08 00:53:56;;;;;;;10.27;6.97;;;;;;;20.24;63.40;100732.13;4158497;28;20133;-69
2023/09/08 00:56:00;;;;;;;10.80;6.72;;;;;;;20.23;63.43;100731.22;4156608;28;20057;-69
2023/09/08 00:58:04;;;;;;;11.65;6.93;;;;;;;20.20;63.96;100733.94;4154377;28;20038;-69
2023/09/08 01:00:08;;;;;;;15.38;6.20;;;;;;;20.18;64.21;100729.56;4144118;28;20077;-70
2023/09/08 01:02:11;;;;;;;9.15;6.78;;;;;;;20.12;64.60;100730.59;4158390;28;20041;-69
2023/09/08 01:04:14;;;;;;;10.55;6.60;;;;;;;20.11;64.88;100730.63;4155956;28;20034;-70
2023/09/08 01:06:18;;;;;;;9.48;6.45;;;;;;;20.06;64.83;100730.72;4161265;28;20041;-69
2023/09/08 01:08:22;;;;;;;8.25;6.05;;;;;;;20.01;65.19;100728.16;4158465;28;20532;-69
2023/09/08 01:10:25;;;;;;;10.98;6.68;;;;;;;19.94;64.89;100723.91;4161802;28;20052;-69
2023/09/08 01:12:29;;;;;;;9.25;6.95;;;;;;;19.88;65.17;100724.91;4159689;28;20045;-69
2023/09/08 01:14:33;;;;;;;9.60;5.90;;;;;;;19.90;64.92;100726.66;4157544;28;20494;-69
2023/09/08 01:16:37;;;;;;;11.43;6.80;;;;;;;19.88;65.13;100722.28;4155534;28;20080;-69
2023/09/08 01:18:40;;;;;;;9.18;6.07;;;;;;;19.89;65.27;100728.44;4152373;28;20077;-70
2023/09/08 01:21:05;;;;;;;8.98;7.13;;;;;;;19.83;64.90;100716.22;4158916;28;20054;-69
2023/09/08 01:23:22;;;;;;;9.52;6.55;;;;;;;19.81;64.77;100728.56;4145300;28;20602;-70
2023/09/08 01:25:26;;;;;;;9.93;6.72;;;;;;;19.79;64.99;100722.47;4174824;28;20123;-69
2023/09/08 01:27:33;;;;;;;10.10;6.82;;;;;;;19.78;64.79;100723.34;4160975;28;20025;-69
2023/09/08 01:29:38;;;;;;;7.85;6.68;;;;;;;19.76;64.42;100722.50;4161008;28;20033;-69
2023/09/08 01:31:41;;;;;;;9.35;6.00;;;;;;;19.78;64.12;100731.28;4160037;28;20049;-69
2023/09/08 01:33:46;;;;;;;11.68;7.25;;;;;;;19.75;64.40;100731.31;4160643;28;20041;-69
2023/09/08 01:35:49;;;;;;;12.65;7.05;;;;;;;19.75;65.07;100731.31;4159121;28;20526;-69
2023/09/08 01:37:52;;;;;;;9.67;6.83;;;;;;;19.72;64.60;100734.00;4155178;28;20038;-69
2023/09/08 01:39:55;;;;;;;10.48;6.93;;;;;;;19.70;64.56;100741.09;4144312;28;20719;-69
2023/09/08 01:41:59;;;;;;;10.38;6.57;;;;;;;19.59;65.20;100732.50;4142085;28;20060;-69
2023/09/08 01:44:07;;;;;;;9.50;5.80;;;;;;;19.54;65.58;100736.09;4156000;28;20084;-71
2023/09/08 01:46:15;;;;;;;9.07;6.40;;;;;;;19.58;65.38;100739.56;4156779;28;20132;-69
2023/09/08 01:48:18;;;;;;;8.80;6.32;;;;;;;19.58;65.40;100741.31;4158213;28;20037;-70
2023/09/08 01:50:24;;;;;;;11.55;7.22;;;;;;;19.59;65.33;100728.09;4144263;28;20144;-70
2023/09/08 01:52:27;;;;;;;11.18;7.18;;;;;;;19.60;64.94;100729.84;4143512;28;20053;-69
2023/09/08 01:54:31;;;;;;;14.45;6.78;;;;;;;19.59;65.35;100729.88;4160066;28;20051;-69
2023/09/08 01:56:34;;;;;;;11.02;6.55;;;;;;;19.64;65.17;100733.25;4153341;28;20042;-69
2023/09/08 01:58:38;;;;;;;13.63;7.65;;;;;;;19.65;64.78;100737.66;4143606;28;20494;-69
2023/09/08 02:00:41;;;;;;;14.43;8.73;;;;;;;19.66;65.21;100728.84;4158754;28;20048;-69
2023/09/08 02:02:43;;;;;;;10.32;6.63;;;;;;;19.66;65.13;100739.41;4159340;28;20440;-70
2023/09/08 02:04:46;;;;;;;9.75;7.15;;;;;;;19.66;65.67;100740.25;4153312;28;20033;-70
2023/09/08 02:06:49;;;;;;;9.68;6.38;;;;;;;19.63;65.59;100737.69;4151815;28;20038;-69
2023/09/08 02:08:52;;;;;;;10.15;6.55;;;;;;;19.59;65.69;100741.28;4140495;28;20124;-69
2023/09/08 02:10:54;;;;;;;10.13;6.10;;;;;;;19.58;65.53;100746.56;4143226;28;20050;-69
2023/09/08 02:12:58;;;;;;;12.70;7.53;;;;;;;19.54;65.54;100737.88;4159955;28;20423;-69
2023/09/08 02:15:03;;;;;;;11.75;7.55;;;;;;;19.51;66.04;100736.16;4140981;28;20053;-69
2023/09/08 02:17:07;;;;;;;12.35;6.72;;;;;;;19.46;65.85;100730.06;4159664;28;20471;-69
2023/09/08 02:19:09;;;;;;;10.10;7.03;;;;;;;19.46;66.01;100724.81;4159867;28;20056;-69
2023/09/08 02:21:11;;;;;;;9.23;7.30;;;;;;;19.48;65.99;100733.56;4158074;28;20116;-69
2023/09/08 02:23:14;;;;;;;11.18;7.97;;;;;;;19.47;65.72;100733.59;4159275;28;20069;-69
2023/09/08 02:25:18;;;;;;;11.63;8.13;;;;;;;19.46;65.88;100735.34;4153318;28;20058;-69
2023/09/08 02:27:21;;;;;;;14.50;8.23;;;;;;;19.43;65.93;100727.50;4163566;28;20093;-69
2023/09/08 02:29:26;;;;;;;11.18;7.50;;;;;;;19.42;65.85;100724.88;4145973;28;20332;-69
2023/09/08 02:31:31;;;;;;;14.88;7.80;;;;;;;19.41;65.91;100729.31;4161542;28;20097;-69
2023/09/08 02:33:34;;;;;;;;;;;;;;;19.27;66.40;100731.31;4162893;28;20037;-69
2023/09/08 02:35:39;;;;;;;13.50;8.07;;;;;;;19.29;66.09;100730.41;4159332;28;19921;-69
2023/09/08 02:37:43;;;;;;;12.32;7.63;;;;;;;19.30;65.97;100725.97;4159371;28;20052;-69
2023/09/08 02:39:45;;;;;;;14.65;7.80;;;;;;;19.31;65.86;100725.09;4163361;28;20044;-70
2023/09/08 02:41:48;;;;;;;9.65;6.97;;;;;;;19.29;66.11;100730.41;4162313;28;20132;-70
2023/09/08 02:43:51;;;;;;;11.48;7.00;;;;;;;19.28;66.60;100730.44;4162172;28;20068;-70
2023/09/08 02:45:54;;;;;;;10.68;6.53;;;;;;;19.27;66.37;100736.59;4159796;28;20048;-70
2023/09/08 02:47:58;;;;;;;10.82;6.88;;;;;;;19.23;67.05;100735.78;4161606;28;20029;-70
2023/09/08 02:50:02;;;;;;;11.95;8.30;;;;;;;19.20;66.41;100733.16;4161562;28;20045;-70
2023/09/08 02:52:07;;;;;;;8.68;6.57;;;;;;;19.14;67.07;100736.81;4164009;28;20072;-69
2023/09/08 02:54:10;;;;;;;9.45;6.72;;;;;;;19.12;67.40;100735.94;4162499;28;20053;-70
2023/09/08 02:56:12;;;;;;;9.98;7.10;;;;;;;19.14;66.87;100735.91;4160724;28;20120;-70
2023/09/08 02:58:15;;;;;;;11.65;7.22;;;;;;;19.09;66.99;100733.38;4162873;28;20060;-70
2023/09/08 03:00:18;;;;;;;11.40;7.10;;;;;;;19.08;67.38;100731.63;4159076;28;20498;-70
2023/09/08 03:02:21;;;;;;;9.98;6.93;;;;;;;19.04;67.27;100745.75;4163016;28;20056;-70
2023/09/08 03:04:25;;;;;;;12.13;7.20;;;;;;;18.98;67.09;100740.56;4153273;28;20042;-70
2023/09/08 03:06:28;;;;;;;12.38;7.70;;;;;;;18.93;67.49;100740.66;4142105;28;20042;-69
2023/09/08 03:08:30;;;;;;;11.35;7.57;;;;;;;18.94;67.42;100744.13;4162324;28;20030;-70
2023/09/08 03:10:34;;;;;;;12.18;7.25;;;;;;;18.96;67.87;100745.00;4160977;28;20549;-70
2023/09/08 03:12:38;;;;;;;11.27;7.80;;;;;;;18.95;67.51;100740.63;4177468;28;20558;-69
2023/09/08 03:14:41;;;;;;;12.30;8.77;;;;;;;18.98;67.19;100746.72;4177663;28;20033;-70
2023/09/08 03:16:44;;;;;;;10.05;7.32;;;;;;;18.99;67.54;100751.06;4173719;28;20041;-70
2023/09/08 03:18:47;;;;;;;17.00;8.18;;;;;;;19.01;67.04;100745.78;4178239;28;20037;-70
2023/09/08 03:20:52;;;;;;;13.88;8.02;;;;;;;19.02;67.13;100742.25;4177522;28;20064;-70
2023/09/08 03:22:55;;;;;;;9.45;6.57;;;;;;;18.99;67.21;100745.81;4162849;28;20034;-70
2023/09/08 03:24:58;;;;;;;15.65;7.32;;;;;;;18.97;67.45;100750.25;4158859;28;20056;-70
2023/09/08 03:27:01;;;;;;;10.80;7.07;;;;;;;18.98;67.40;100748.47;4144319;28;20042;-70
2023/09/08 03:29:04;;;;;;;10.63;7.00;;;;;;;18.94;67.49;100749.41;4156229;28;20037;-69
2023/09/08 03:31:07;;;;;;;12.20;6.85;;;;;;;18.88;67.53;100739.88;4164104;28;20033;-70
2023/09/08 03:33:11;;;;;;;11.45;7.32;;;;;;;18.80;67.98;100745.19;4160156;28;20531;-69
2023/09/08 03:35:14;;;;;;;11.40;7.73;;;;;;;18.82;68.11;100746.06;4156034;28;20072;-69
2023/09/08 03:37:19;;;;;;;9.55;7.22;;;;;;;18.81;68.04;100743.47;4160588;28;20041;-70
2023/09/08 03:39:24;;;;;;;13.35;7.32;;;;;;;18.74;68.75;100739.16;4160520;28;20041;-70
2023/09/08 03:41:27;;;;;;;10.82;6.88;;;;;;;18.75;68.12;100741.78;4160465;28;20033;-69
2023/09/08 03:43:30;;;;;;;11.40;7.03;;;;;;;18.70;68.46;100746.22;4145406;28;20054;-70
2023/09/08 03:45:32;;;;;;;12.23;7.80;;;;;;;18.71;68.64;100747.13;4159005;28;20045;-70
2023/09/08 03:47:35;;;;;;;11.77;8.20;;;;;;;18.70;68.59;100746.22;4159737;28;20087;-70
2023/09/08 03:49:38;;;;;;;13.38;7.90;;;;;;;18.69;68.50;100749.78;4162488;28;20492;-70
2023/09/08 03:51:41;;;;;;;11.13;7.97;;;;;;;18.69;68.58;100748.88;4159614;28;20033;-70
2023/09/08 03:53:45;;;;;;;11.73;7.97;;;;;;;18.64;68.59;100743.69;4155835;28;20044;-70
2023/09/08 03:55:48;;;;;;;10.15;7.03;;;;;;;18.66;68.35;100747.16;4159374;28;20037;-69
2023/09/08 03:57:50;;;;;;;13.80;8.00;;;;;;;18.61;68.74;100743.75;4159495;28;20045;-70
2023/09/08 03:59:53;;;;;;;10.32;7.93;;;;;;;18.57;68.94;100749.94;4162403;28;20507;-70
2023/09/08 04:01:56;;;;;;;14.45;7.78;;;;;;;18.57;69.20;100747.31;4157691;28;20445;-70
2023/09/08 04:03:59;;;;;;;11.45;8.02;;;;;;;18.57;68.84;100756.06;4158757;28;20065;-70
2023/09/08 04:06:02;;;;;;;12.93;7.82;;;;;;;18.56;69.30;100753.47;4158616;28;20050;-70
2023/09/08 04:08:06;;;;;;;12.75;8.02;;;;;;;18.52;69.28;100752.66;4161155;28;20128;-70
2023/09/08 04:10:09;;;;;;;13.13;8.20;;;;;;;18.48;69.30;100756.22;4140766;28;20050;-70
2023/09/08 04:12:12;;;;;;;11.43;7.23;;;;;;;18.46;69.16;100758.84;4161630;28;20042;-70
2023/09/08 04:14:15;;;;;;;11.68;8.02;;;;;;;18.46;68.97;100755.38;4156904;28;20297;-70
2023/09/08 04:16:18;;;;;;;11.82;7.88;;;;;;;18.45;69.43;100757.09;4160421;28;20038;-70
2023/09/08 04:18:21;;;;;;;14.35;7.97;;;;;;;18.45;69.68;100757.09;4157970;28;20097;-70
2023/09/08 04:20:23;;;;;;;13.65;7.95;;;;;;;18.41;69.63;100754.53;4156860;28;20041;-70
2023/09/08 04:22:26;;;;;;;11.63;7.40;;;;;;;18.41;69.31;100757.19;4158821;28;20044;-70
2023/09/08 04:24:29;;;;;;;9.65;7.47;;;;;;;18.40;69.52;100755.44;4159275;28;20076;-69
2023/09/08 04:26:33;;;;;;;13.07;8.18;;;;;;;18.43;69.74;100753.63;4154099;28;20128;-70
2023/09/08 04:28:36;;;;;;;10.65;7.93;;;;;;;18.41;69.70;100760.69;4142027;28;20444;-70
2023/09/08 04:30:40;;;;;;;9.70;7.82;;;;;;;18.41;69.62;100758.06;4158636;28;20412;-70
2023/09/08 04:32:43;;;;;;;11.50;8.50;;;;;;;18.38;69.89;100765.97;4160798;28;20040;-70
2023/09/08 04:34:46;;;;;;;11.52;7.32;;;;;;;18.37;69.75;100766.88;4161635;28;20037;-70
2023/09/08 04:36:48;;;;;;;11.00;7.95;;;;;;;18.38;69.27;100773.00;4159763;28;20043;-70
2023/09/08 04:38:51;;;;;;;11.65;7.70;;;;;;;18.38;69.59;100765.97;4159991;28;20796;-70
2023/09/08 04:40:54;;;;;;;12.75;7.55;;;;;;;18.41;69.28;100767.72;4143991;28;20128;-70
2023/09/08 04:42:59;;;;;;;13.48;7.18;;;;;;;18.40;69.64;100774.75;4158533;28;20045;-70
2023/09/08 04:45:01;;;;;;;15.52;8.75;;;;;;;18.40;69.73;100779.13;4151527;28;20508;-70
2023/09/08 04:47:05;;;;;;;15.02;7.45;;;;;;;18.40;70.24;100774.75;4155605;28;20050;-70
2023/09/08 04:49:08;;;;;;;8.93;7.70;;;;;;;18.41;69.73;100771.22;4142857;28;20054;-70
2023/09/08 04:51:11;;;;;;;11.98;7.35;;;;;;;18.42;69.89;100780.00;4137713;28;20085;-70
2023/09/08 04:53:14;;;;;;;11.70;7.18;;;;;;;18.41;69.94;100781.75;4152063;28;20046;-70
2023/09/08 04:55:19;;;;;;;10.13;7.95;;;;;;;18.42;70.04;100780.84;4156172;28;20127;-70
2023/09/08 04:57:21;;;;;;;9.48;7.15;;;;;;;18.41;70.30;100775.59;4154281;28;20038;-70
2023/09/08 04:59:31;;;;;;;10.82;7.60;;;;;;;18.44;70.30;100775.56;4140906;28;20133;-70
2023/09/08 05:01:36;;;;;;;14.55;8.60;;;;;;;18.45;70.20;100772.91;4160256;28;20072;-70
2023/09/08 05:03:41;;;;;;;11.73;8.20;;;;;;;18.46;69.69;100779.91;4158297;28;20041;-69
2023/09/08 05:05:45;;;;;;;12.10;8.68;;;;;;;18.48;69.91;100783.38;4141389;28;20042;-70
2023/09/08 05:07:50;;;;;;;12.55;7.60;;;;;;;18.46;70.16;100779.06;4161495;28;20035;-70
2023/09/08 05:09:54;;;;;;;15.25;8.80;;;;;;;18.49;69.88;100777.25;4157712;28;20548;-70
2023/09/08 05:12:02;;;;;;;12.07;8.27;;;;;;;18.53;69.39;100779.84;4156749;28;20139;-70
2023/09/08 05:14:05;;;;;;;11.32;7.93;;;;;;;18.56;69.64;100783.31;4158658;28;20049;-70
2023/09/08 05:16:12;;;;;;;13.60;8.48;;;;;;;18.59;69.26;100775.38;4155915;28;20044;-70
2023/09/08 05:18:25;;;;;;;10.50;8.10;;;;;;;18.60;69.67;100781.50;4132986;28;20042;-70
2023/09/08 05:20:28;;;;;;;9.52;7.60;;;;;;;18.64;69.55;100786.69;4155678;28;20038;-70
2023/09/08 05:22:30;;;;;;;10.15;7.28;;;;;;;18.66;69.90;100786.66;4157750;28;20496;-70
2023/09/08 05:24:33;;;;;;;17.63;8.30;;;;;;;18.67;70.05;100788.41;4157135;28;20041;-69
2023/09/08 05:26:38;;;;;;;14.60;8.27;;;;;;;18.68;69.72;100790.16;4166900;28;20044;-70
2023/09/08 05:28:41;;;;;;;13.98;8.88;;;;;;;18.76;69.30;100784.78;4143158;28;20060;-70
2023/09/08 05:30:46;;;;;;;13.93;8.70;;;;;;;18.76;68.52;100783.03;4154424;28;20084;-69
2023/09/08 05:32:51;;;;;;;12.35;8.05;;;;;;;18.83;68.68;100795.19;4157006;28;20038;-70
2023/09/08 05:34:54;;;;;;;;;;;;;;;18.76;68.53;100784.78;4158060;28;20408;-70
2023/09/08 05:36:57;;;;;;;10.40;8.02;;;;;;;18.78;68.50;100783.00;4155114;28;19975;-70
2023/09/08 05:39:00;;;;;;;13.35;7.45;;;;;;;18.82;68.30;100797.84;4139359;28;20058;-70
2023/09/08 05:41:03;;;;;;;11.00;8.17;;;;;;;18.83;68.51;100789.06;4158997;28;20444;-70
2023/09/08 05:43:07;;;;;;;11.18;9.10;;;;;;;18.87;68.05;100795.22;4159981;28;20045;-70
2023/09/08 05:45:11;;;;;;;15.85;7.97;;;;;;;18.90;67.80;100793.38;4158652;28;20041;-70
2023/09/08 05:47:14;;;;;;;15.48;7.88;;;;;;;18.92;67.70;100793.38;4175911;28;20040;-69
2023/09/08 05:49:18;;;;;;;17.55;9.52;;;;;;;18.98;67.33;100803.81;4170198;28;20044;-69
2023/09/08 05:51:22;;;;;;;14.10;8.50;;;;;;;19.00;67.89;100799.41;4157557;28;20124;-69
2023/09/08 05:53:25;;;;;;;16.92;8.20;;;;;;;18.98;67.95;100798.53;4143736;28;20088;-69
2023/09/08 05:55:28;;;;;;;19.17;11.23;;;;;;;19.04;67.71;100800.22;4138868;28;20548;-70
2023/09/08 05:57:31;;;;;;;20.88;9.95;;;;;;;19.02;67.44;100800.22;4158420;28;20076;-69
2023/09/08 05:59:34;;;;;;;17.15;8.77;;;;;;;19.06;67.78;100811.63;4159003;28;20048;-70
2023/09/08 06:01:38;;;;;;;17.80;9.32;;;;;;;19.13;67.29;100802.72;4174879;28;20095;-70
2023/09/08 06:03:43;;;;;;;17.63;9.15;;;;;;;19.19;67.20;100802.63;4156153;28;20037;-70
2023/09/08 06:05:49;;;;;;;17.52;10.40;;;;;;;19.22;66.83;100799.94;4157743;28;20100;-70
2023/09/08 06:07:52;;;;;;;15.13;9.75;;;;;;;19.27;66.68;100805.97;4156628;28;20412;-70
2023/09/08 06:10:09;;;;;;;14.88;8.50;;;;;;;19.35;66.12;100800.59;4133704;28;20042;-70
2023/09/08 06:12:13;;;;;;;15.55;9.30;;;;;;;19.32;66.72;100798.03;4154906;28;20029;-70
2023/09/08 06:14:15;;;;;;;17.88;9.55;;;;;;;19.36;66.70;100799.69;4156119;28;20038;-69
2023/09/08 06:16:21;;;;;;;15.15;9.80;;;;;;;19.43;65.84;100797.81;4137968;28;20080;-69
2023/09/08 06:18:24;;;;;;;14.35;9.88;;;;;;;19.40;66.52;100806.66;4170297;28;20513;-69
2023/09/08 06:20:27;;;;;;;17.35;8.98;;;;;;;19.40;66.30;100805.78;4174826;28;20033;-69
2023/09/08 06:22:32;;;;;;;21.63;10.95;;;;;;;19.45;66.21;100799.56;4182462;22;20503;-63
2023/09/08 06:24:35;;;;;;;16.60;9.52;;;;;;;19.48;66.52;100804.75;4171389;28;20120;-64
2023/09/08 06:26:38;;;;;;;18.80;10.38;;;;;;;19.54;66.28;100799.38;4139288;28;20060;-64
2023/09/08 06:28:43;;;;;;;16.25;8.57;;;;;;;19.51;65.97;100799.44;4169107;28;20129;-64
2023/09/08 06:30:46;;;;;;;13.77;8.77;;;;;;;19.56;66.75;100806.41;4174088;28;20120;-64
2023/09/08 06:32:48;;;;;;;17.33;11.60;;;;;;;19.60;66.41;100802.81;4147070;28;20421;-63
2023/09/08 06:34:52;;;;;;;14.88;9.43;;;;;;;19.61;66.79;100804.53;4170403;28;20041;-64
2023/09/08 06:36:55;;;;;;;11.18;9.13;;;;;;;19.68;66.25;100798.25;4163363;28;20482;-63
2023/09/08 06:38:59;;;;;;;10.27;6.40;;;;;;;19.87;68.23;100805.00;4163366;28;20038;-60
2023/09/08 06:41:02;;;;;;;8.32;5.53;;;;;;;20.12;68.95;100807.16;4157272;28;20422;-60
2023/09/08 06:43:05;;;;;;;12.80;6.45;;;;;;;20.35;68.37;100803.16;4165845;28;20042;-60
2023/09/08 06:45:32;;;;;;;13.82;6.60;;;;;;;20.54;69.08;100808.91;4155327;28;20524;-60
2023/09/08 06:47:35;;;;;;;12.02;6.93;;;;;;;20.69;68.20;100802.47;4155720;28;20042;-61
2023/09/08 06:49:38;;;;;;;10.57;6.57;;;;;;;20.82;67.21;100806.59;4140735;28;20133;-61
2023/09/08 06:51:40;;;;;;;10.07;6.78;;;;;;;20.89;66.40;100805.50;4155128;28;20405;-60
2023/09/08 06:53:44;;;;;;;16.23;7.60;;;;;;;20.92;66.23;100799.28;4160322;28;20511;-60
2023/09/08 06:55:50;;;;;;;12.48;6.63;;;;;;;21.01;66.02;100804.38;4162181;28;20045;-61
2023/09/08 06:57:53;;;;;;;13.02;7.22;;;;;;;21.06;66.01;100793.69;4151517;28;20485;-61
2023/09/08 06:59:56;;;;;;;13.38;7.57;;;;;;;21.10;65.78;100800.66;4158414;28;20512;-61
2023/09/08 07:01:59;;;;;;;12.55;7.53;;;;;;;21.13;65.24;100800.56;4159243;28;20506;-61
2023/09/08 07:04:02;;;;;;;16.60;8.02;;;;;;;21.15;65.28;100808.47;4158997;28;20484;-61
2023/09/08 07:06:06;;;;;;;10.82;7.05;;;;;;;21.22;65.35;100802.97;4157717;28;20038;-60
2023/09/08 07:08:09;;;;;;;10.48;7.72;;;;;;;21.32;64.61;100798.34;4158461;28;20452;-60
2023/09/08 07:10:12;;;;;;;12.25;7.68;;;;;;;21.43;64.43;100798.06;4141168;28;20034;-61
2023/09/08 07:12:16;;;;;;;13.80;8.18;;;;;;;21.48;64.24;100804.13;4155207;28;20534;-62
2023/09/08 07:14:23;;;;;;;18.20;8.63;;;;;;;21.49;63.15;100803.19;4165132;28;20431;-64
2023/09/08 07:16:25;;;;;;;10.95;7.38;;;;;;;21.49;63.81;100805.84;4164799;28;20450;-64
2023/09/08 07:18:28;;;;;;;11.52;7.18;;;;;;;21.52;63.51;100800.50;4156319;28;20464;-65
2023/09/08 07:20:31;;;;;;;10.50;7.13;;;;;;;21.57;63.46;100801.25;4167795;28;20515;-64
2023/09/08 07:22:35;;;;;;;11.98;7.55;;;;;;;21.67;62.98;100806.31;4164950;28;20148;-65
2023/09/08 07:24:38;;;;;;;14.32;7.47;;;;;;;21.70;62.74;100803.56;4148004;28;20052;-65
2023/09/08 07:26:41;;;;;;;11.77;7.10;;;;;;;21.72;62.81;100801.78;4150471;28;20034;-65
2023/09/08 07:28:46;;;;;;;10.38;7.25;;;;;;;21.73;62.31;100795.56;4156392;28;20037;-66
2023/09/08 07:30:50;;;;;;;13.95;7.22;;;;;;;21.78;62.61;100804.25;4176094;28;20069;-65
2023/09/08 07:32:54;;;;;;;12.17;7.80;;;;;;;21.78;62.52;100796.31;4163586;28;20064;-64
2023/09/08 07:34:57;;;;;;;14.55;7.30;;;;;;;21.79;62.58;100798.06;4160622;28;20512;-70
2023/09/08 07:37:01;;;;;;;11.90;7.22;;;;;;;21.83;62.21;100798.81;4162989;28;20522;-64
2023/09/08 07:39:04;;;;;;;;;;;;;;;21.78;62.17;100798.94;4162515;28;20057;-64
2023/09/08 07:41:07;;;;;;;11.00;7.75;;;;;;;21.83;62.17;100798.81;4160450;28;19921;-64
2023/09/08 07:43:11;;;;;;;13.27;8.43;;;;;;;21.86;61.89;100799.63;4173862;28;20052;-63
2023/09/08 07:45:15;;;;;;;19.95;8.40;;;;;;;21.89;61.99;100806.59;4158943;28;20046;-64
2023/09/08 07:47:18;;;;;;;15.50;10.18;;;;;;;21.94;61.02;100812.63;4147667;28;20038;-64
2023/09/08 07:49:21;;;;;;;14.40;7.97;;;;;;;21.97;61.11;100808.13;4167541;28;20071;-64
2023/09/08 07:51:24;;;;;;;16.20;9.25;;;;;;;22.01;61.14;100808.06;4166421;28;20050;-65
2023/09/08 07:53:27;;;;;;;14.95;8.50;;;;;;;22.07;60.89;100810.53;4165121;28;20141;-64
2023/09/08 07:55:30;;;;;;;18.20;10.27;;;;;;;22.10;60.60;100807.78;4164505;28;20107;-63
2023/09/08 07:57:33;;;;;;;17.40;8.40;;;;;;;22.14;60.87;100815.59;4160137;28;20045;-64
2023/09/08 07:59:36;;;;;;;14.57;9.20;;;;;;;22.21;60.28;100820.72;4168176;28;20504;-63
2023/09/08 08:01:40;;;;;;;20.93;9.37;;;;;;;22.27;60.63;100815.25;4169256;28;20116;-64
2023/09/08 08:03:43;;;;;;;12.98;8.20;;;;;;;22.33;59.97;100822.16;4164120;28;20255;-63
2023/09/08 08:05:46;;;;;;;12.77;7.20;;;;;;;22.38;59.77;100809.69;4167119;28;20045;-64
2023/09/08 08:07:48;;;;;;;15.35;8.15;;;;;;;22.40;60.02;100815.78;4169252;28;20131;-64
2023/09/08 08:09:53;;;;;;;14.82;9.40;;;;;;;22.34;58.74;100806.25;4152252;28;20556;-64
2023/09/08 08:11:56;;;;;;;15.00;7.72;;;;;;;22.35;59.74;100812.41;4160480;28;20100;-64
2023/09/08 08:14:00;;;;;;;18.42;8.10;;;;;;;22.37;59.42;100805.28;4168782;28;20065;-63
2023/09/08 08:16:03;;;;;;;15.07;7.22;;;;;;;22.48;59.06;100811.13;4165089;28;20042;-66
2023/09/08 08:18:09;;;;;;;13.80;6.70;;;;;;;22.58;58.99;100814.38;4166140;28;20120;-66
2023/09/08 08:20:17;;;;;;;19.77;9.10;;;;;;;22.65;58.47;100808.00;4152706;28;20808;-66
2023/09/08 08:22:21;;;;;;;15.57;6.60;;;;;;;22.67;58.31;100814.09;4185232;28;20128;-66
2023/09/08 08:24:24;;;;;;;14.93;7.45;;;;;;;22.65;58.46;100811.50;4166848;28;20041;-66
2023/09/08 08:26:29;;;;;;;13.38;7.03;;;;;;;22.72;58.33;100811.31;4163227;28;20532;-66
2023/09/08 08:28:32;;;;;;;18.65;7.78;;;;;;;22.74;58.19;100817.44;4175760;28;20044;-66
2023/09/08 08:30:36;;;;;;;16.48;7.28;;;;;;;22.81;57.51;100813.69;4169726;28;20500;-66
2023/09/08 08:32:39;;;;;;;10.05;6.43;;;;;;;22.87;57.87;100816.16;4162937;28;20049;-66
2023/09/08 08:34:43;;;;;;;17.98;6.95;;;;;;;22.98;56.39;100813.13;4159006;28;20079;-66
2023/09/08 08:36:46;;;;;;;12.05;6.63;;;;;;;22.97;57.12;100811.44;4167653;28;20075;-68
2023/09/08 08:38:49;;;;;;;11.68;5.70;;;;;;;23.00;57.95;100812.19;4165456;28;20061;-67
2023/09/08 08:40:52;;;;;;;10.77;6.28;;;;;;;23.09;56.29;100810.16;4174514;28;20048;-67
2023/09/08 08:42:56;;;;;;;13.13;6.60;;;;;;;23.17;56.14;100808.13;4167704;28;20575;-68
2023/09/08 08:45:05;;;;;;;11.07;7.18;;;;;;;23.14;56.75;100811.78;4163215;28;20045;-67
2023/09/08 08:47:08;;;;;;;13.32;5.60;;;;;;;23.21;56.51;100809.78;4165269;28;20657;-67
2023/09/08 08:49:13;;;;;;;15.13;6.95;;;;;;;23.28;55.92;100813.13;4167487;28;20037;-68
2023/09/08 08:51:18;;;;;;;19.05;8.05;;;;;;;23.57;53.42;100812.13;4165524;28;20040;-68
2023/09/08 08:53:22;;;;;;;12.27;6.07;;;;;;;23.53;54.00;100806.03;4145089;28;20042;-67
2023/09/08 08:55:26;;;;;;;14.00;6.35;;;;;;;23.38;55.37;100805.69;4161782;28;20045;-68
2023/09/08 08:57:29;;;;;;;;;;;;;;;23.26;55.53;100812.28;4172667;28;20065;-68
2023/09/08 08:59:32;;;;;;;8.40;6.05;;;;;;;23.31;55.52;100808.56;4169407;28;20462;-67
2023/09/08 09:01:36;;;;;;;12.40;5.32;;;;;;;23.43;55.87;100806.41;4165639;28;20041;-67
2023/09/08 09:03:41;;;;;;;10.43;5.88;;;;;;;23.53;55.55;100805.19;4157832;28;20084;-67
2023/09/08 09:05:45;;;;;;;10.20;6.78;;;;;;;23.60;56.05;100806.72;4165744;28;20052;-68
2023/09/08 09:07:56;;;;;;;9.88;6.88;;;;;;;23.68;55.49;100806.44;4159740;28;20119;-67
2023/09/08 09:09:59;;;;;;;11.82;6.68;;;;;;;23.75;54.26;100797.34;4154934;28;20125;-67
2023/09/08 09:12:02;;;;;;;13.32;6.88;;;;;;;23.86;53.47;100807.63;4159714;28;20504;-66
2023/09/08 09:14:05;;;;;;;11.25;6.35;;;;;;;23.92;53.85;100803.84;4158761;28;20088;-63
2023/09/08 09:16:10;;;;;;;11.23;6.38;;;;;;;24.01;53.20;100812.38;4155172;28;20041;-66
2023/09/08 09:18:16;;;;;;;9.50;6.53;;;;;;;24.04;53.61;100809.59;4163189;28;20706;-66
2023/09/08 09:20:21;;;;;;;9.40;5.70;;;;;;;24.16;53.10;100810.09;4165131;28;20056;-66
2023/09/08 09:22:36;;;;;;;11.88;7.60;;;;;;;24.32;51.95;100803.25;4156202;28;20512;-66
2023/09/08 09:24:43;;;;;;;10.90;6.97;;;;;;;24.47;51.12;100803.59;4167453;28;20106;-66
2023/09/08 09:26:47;;;;;;;8.40;5.93;;;;;;;24.39;51.98;100795.94;4168724;28;20120;-66
2023/09/08 09:28:51;;;;;;;9.15;5.78;;;;;;;24.45;51.10;100794.84;4163356;28;20057;-66
2023/09/08 09:30:55;;;;;;;13.20;6.95;;;;;;;24.59;50.78;100803.19;4166697;28;20046;-66